Time;durP1;ratioP1;P1;durP2;ratioP2;P2;SDS_P1;SDS_P2;PMS_P1;PMS_P2;Temp;Humidity;BMP_temperature;BMP_pressure;BME280_temperature;BME280_humidity;BME280_pressure;Samples;Min_cycle;Max_cycle;Signal;HPM_P1;HPM_P2
2023/05/17 00:00:30;;;;;;;13.43;3.97;;;9.40;99.90;;;;;;5051145;28;20888;-59
2023/05/17 00:03:00;;;;;;;11.03;4.10;;;9.40;99.90;;;;;;5052176;28;20312;-58
2023/05/17 00:05:28;;;;;;;10.63;3.23;;;9.40;99.90;;;;;;5051578;28;20256;-58
2023/05/17 00:07:57;;;;;;;17.53;4.17;;;9.40;99.90;;;;;;5052548;28;20234;-58
2023/05/17 00:10:25;;;;;;;12.60;3.20;;;9.40;99.90;;;;;;5055661;28;20589;-58
2023/05/17 00:12:53;;;;;;;16.50;3.73;;;9.40;99.90;;;;;;5057514;28;20749;-58
2023/05/17 00:15:21;;;;;;;15.17;3.83;;;9.30;99.90;;;;;;5067252;28;20216;-59
2023/05/17 00:17:49;;;;;;;14.53;3.90;;;9.30;99.90;;;;;;5075224;28;20323;-59
2023/05/17 00:20:19;;;;;;;14.23;3.37;;;9.20;99.90;;;;;;5055032;28;20219;-58
2023/05/17 00:22:47;;;;;;;15.10;3.67;;;9.30;99.90;;;;;;5055285;28;20561;-58
2023/05/17 00:25:15;;;;;;;12.30;3.23;;;9.30;99.90;;;;;;5055420;28;20633;-57
2023/05/17 00:27:43;;;;;;;14.27;4.07;;;9.30;99.90;;;;;;5054891;28;20255;-58
2023/05/17 00:30:15;;;;;;;11.90;3.60;;;9.30;99.90;;;;;;5054652;28;20627;-58
2023/05/17 00:32:45;;;;;;;14.13;3.43;;;9.30;99.90;;;;;;5054789;28;21607;-59
2023/05/17 00:35:14;;;;;;;17.30;3.60;;;9.20;99.90;;;;;;5055068;28;20642;-57
2023/05/17 00:37:46;;;;;;;13.90;3.27;;;9.20;99.90;;;;;;5036981;28;20255;-58
2023/05/17 00:40:15;;;;;;;15.53;3.43;;;9.20;99.90;;;;;;5037024;28;20229;-58
2023/05/17 00:42:44;;;;;;;9.77;3.47;;;9.20;99.90;;;;;;5055564;28;20226;-59
2023/05/17 00:45:12;;;;;;;19.37;3.73;;;9.20;99.90;;;;;;5066498;28;20228;-58
2023/05/17 00:47:41;;;;;;;15.37;3.30;;;9.20;99.90;;;;;;5074509;28;20225;-57
2023/05/17 00:50:10;;;;;;;14.63;3.20;;;9.20;99.90;;;;;;5067666;28;20248;-58
2023/05/17 00:52:39;;;;;;;17.80;3.40;;;9.20;99.90;;;;;;5054420;28;20741;-58
2023/05/17 00:55:09;;;;;;;14.80;3.40;;;9.10;99.90;;;;;;5054663;28;20263;-58
2023/05/17 00:57:38;;;;;;;13.60;3.77;;;9.10;99.90;;;;;;5054688;28;20633;-58
2023/05/17 01:00:07;;;;;;;19.33;3.47;;;9.10;99.90;;;;;;5033324;28;20249;-59
2023/05/17 01:02:35;;;;;;;15.33;3.10;;;9.10;99.90;;;;;;5034007;28;20329;-56
2023/05/17 01:05:04;;;;;;;16.40;3.50;;;9.20;99.90;;;;;;5026584;28;20305;-58
2023/05/17 01:07:34;;;;;;;15.57;3.77;;;9.20;99.90;;;;;;5034328;28;20688;-59
2023/05/17 01:10:03;;;;;;;15.17;3.40;;;9.20;99.90;;;;;;5034543;28;20221;-59
2023/05/17 01:12:45;;;;;;;16.40;3.77;;;9.10;99.90;;;;;;5034452;28;20229;-59
2023/05/17 01:15:15;;;;;;;14.93;3.23;;;9.10;99.90;;;;;;5035889;28;20217;-58
2023/05/17 01:17:54;;;;;;;10.93;2.80;;;9.10;99.90;;;;;;5034277;28;20639;-59
2023/05/17 01:20:28;;;;;;;14.37;3.07;;;9.10;99.90;;;;;;5034165;28;20229;-58
2023/05/17 01:23:14;;;;;;;14.10;3.30;;;9.10;99.90;;;;;;5034132;28;20581;-58
2023/05/17 01:25:54;;;;;;;14.37;2.77;;;9.10;99.90;;;;;;5032786;28;20236;-59
2023/05/17 01:28:27;;;;;;;23.77;4.33;;;9.10;99.90;;;;;;5034233;28;20587;-58
2023/05/17 01:30:57;;;;;;;16.20;3.70;;;9.00;99.90;;;;;;5033559;28;20587;-58
2023/05/17 01:33:26;;;;;;;14.33;3.23;;;9.00;99.90;;;;;;5032812;28;20240;-59
2023/05/17 01:35:54;;;;;;;13.70;2.93;;;9.00;99.90;;;;;;5032760;28;20700;-58
2023/05/17 01:38:22;;;;;;;16.20;3.47;;;9.00;99.90;;;;;;5034025;28;20220;-58
2023/05/17 01:40:56;;;;;;;12.80;2.93;;;9.00;99.90;;;;;;5033903;28;20283;-58
2023/05/17 01:43:33;;;;;;;13.13;3.23;;;9.00;99.90;;;;;;5039092;28;20228;-58
2023/05/17 01:46:10;;;;;;;15.30;3.30;;;9.00;99.90;;;;;;5038732;28;20248;-58
2023/05/17 01:48:47;;;;;;;16.20;3.27;;;9.00;99.90;;;;;;5032270;28;20233;-58
2023/05/17 01:51:19;;;;;;;13.20;3.10;;;9.00;99.90;;;;;;5033422;28;20224;-57
2023/05/17 01:53:55;;;;;;;15.67;3.83;;;9.00;99.90;;;;;;5033799;28;20233;-58
2023/05/17 01:56:30;;;;;;;13.73;3.10;;;9.00;99.90;;;;;;5032397;28;20697;-58
2023/05/17 01:59:03;;;;;;;16.73;3.20;;;9.00;99.90;;;;;;5032353;28;20222;-58
2023/05/17 02:01:33;;;;;;;15.87;3.40;;;9.00;99.90;;;;;;5048827;28;20281;-59
2023/05/17 02:04:01;;;;;;;16.07;3.40;;;9.00;99.90;;;;;;5053587;28;20251;-58
2023/05/17 02:06:32;;;;;;;12.33;3.40;;;8.90;99.90;;;;;;5035391;28;20684;-58
2023/05/17 02:09:01;;;;;;;13.70;2.57;;;8.90;99.90;;;;;;5053589;28;20616;-59
2023/05/17 02:11:31;;;;;;;14.70;3.00;;;8.90;99.90;;;;;;5052682;28;20226;-58
2023/05/17 02:14:00;;;;;;;12.60;2.80;;;8.90;99.90;;;;;;5061327;28;20296;-59
2023/05/17 02:16:28;;;;;;;18.17;3.10;;;8.90;99.90;;;;;;5050281;28;20265;-58
2023/05/17 02:18:56;;;;;;;8.90;2.43;;;8.90;99.90;;;;;;5073078;28;20295;-58
2023/05/17 02:21:25;;;;;;;9.97;2.43;;;8.80;99.90;;;;;;5055314;28;20295;-58
2023/05/17 02:23:53;;;;;;;12.30;2.87;;;8.80;99.90;;;;;;5053312;28;20691;-58
2023/05/17 02:26:21;;;;;;;12.20;3.17;;;8.90;99.90;;;;;;5053005;28;20699;-58
2023/05/17 02:28:49;;;;;;;13.33;3.30;;;8.80;99.90;;;;;;5052778;28;20227;-58
2023/05/17 02:31:18;;;;;;;13.37;2.77;;;8.70;99.90;;;;;;5052201;28;20746;-58
2023/05/17 02:33:49;;;;;;;11.60;2.63;;;8.70;99.90;;;;;;5035067;28;20734;-58
2023/05/17 02:36:17;;;;;;;14.63;2.80;;;8.70;99.90;;;;;;5053032;28;20232;-59
2023/05/17 02:38:45;;;;;;;8.93;2.40;;;8.60;99.90;;;;;;5052936;28;20220;-57
2023/05/17 02:41:14;;;;;;;15.47;2.77;;;8.60;99.90;;;;;;5052850;28;20699;-58
2023/05/17 02:43:42;;;;;;;10.57;2.17;;;8.60;99.90;;;;;;5060765;28;20219;-59
2023/05/17 02:46:10;;;;;;;11.87;2.50;;;8.50;99.90;;;;;;5065468;28;20307;-59
2023/05/17 02:48:39;;;;;;;10.90;2.67;;;8.60;99.90;;;;;;5072431;28;20216;-58
2023/05/17 02:51:07;;;;;;;7.43;1.97;;;8.60;99.90;;;;;;5042174;28;20228;-58
2023/05/17 02:53:36;;;;;;;9.67;2.37;;;8.70;99.90;;;;;;5034527;28;20282;-58
2023/05/17 02:56:04;;;;;;;9.80;2.23;;;8.70;99.90;;;;;;5034862;28;20224;-58
2023/05/17 02:58:33;;;;;;;10.70;1.80;;;8.70;99.90;;;;;;5034536;28;20303;-56
2023/05/17 03:01:01;;;;;;;7.87;2.23;;;8.60;99.90;;;;;;5033970;28;20247;-57
2023/05/17 03:03:30;;;;;;;7.77;1.73;;;8.60;99.90;;;;;;5034699;28;20319;-58
2023/05/17 03:06:04;;;;;;;10.27;2.50;;;8.70;99.90;;;;;;5034704;28;20224;-59
2023/05/17 03:08:33;;;;;;;10.97;2.17;;;8.70;99.90;;;;;;5034318;28;20228;-57
2023/05/17 03:11:02;;;;;;;10.63;2.30;;;8.70;99.90;;;;;;5034594;28;20232;-58
2023/05/17 03:13:31;;;;;;;8.17;1.60;;;8.70;99.90;;;;;;5059508;28;20219;-58
2023/05/17 03:16:00;;;;;;;7.10;1.70;;;8.70;99.90;;;;;;5046077;28;20246;-59
2023/05/17 03:18:28;;;;;;;11.23;2.20;;;8.60;99.90;;;;;;5054237;28;20223;-58
2023/05/17 03:20:57;;;;;;;11.50;2.03;;;8.60;99.90;;;;;;5043403;28;20289;-58
2023/05/17 03:23:27;;;;;;;8.37;2.20;;;8.60;99.90;;;;;;5034407;28;20318;-57
2023/05/17 03:26:00;;;;;;;14.23;2.20;;;8.60;99.90;;;;;;5034479;28;20232;-59
2023/05/17 03:28:32;;;;;;;6.97;1.97;;;8.60;99.90;;;;;;5034164;28;20223;-58
2023/05/17 03:31:00;;;;;;;11.10;2.10;;;8.60;99.90;;;;;;5034251;28;20352;-58
2023/05/17 03:33:31;;;;;;;8.47;1.73;;;8.50;99.90;;;;;;5034255;28;20220;-58
2023/05/17 03:36:00;;;;;;;13.10;2.00;;;8.60;99.90;;;;;;5034435;28;20232;-59
2023/05/17 03:38:30;;;;;;;9.93;1.63;;;8.60;99.90;;;;;;5034149;28;20236;-58
2023/05/17 03:40:58;;;;;;;14.33;2.40;;;8.60;99.90;;;;;;5034398;28;20220;-58
2023/05/17 03:43:27;;;;;;;11.63;1.80;;;8.70;99.90;;;;;;5036387;28;20710;-57
2023/05/17 03:45:56;;;;;;;10.93;1.87;;;8.60;99.90;;;;;;5041855;28;20232;-58
2023/05/17 03:48:25;;;;;;;10.47;2.13;;;8.70;99.90;;;;;;5037914;28;20273;-59
2023/05/17 03:50:53;;;;;;;11.63;2.10;;;8.70;99.90;;;;;;5040377;28;20587;-58
2023/05/17 03:53:22;;;;;;;9.00;1.90;;;8.80;99.90;;;;;;5041857;28;20227;-58
2023/05/17 03:55:51;;;;;;;9.73;1.90;;;8.80;99.90;;;;;;5055927;28;20778;-59
2023/05/17 03:58:19;;;;;;;8.30;1.77;;;8.80;99.90;;;;;;5037755;28;20731;-59
2023/05/17 04:00:48;;;;;;;9.63;1.80;;;8.80;99.90;;;;;;5037092;28;20231;-58
2023/05/17 04:03:18;;;;;;;8.20;1.73;;;8.80;99.90;;;;;;5037115;28;20774;-58
2023/05/17 04:05:47;;;;;;;9.57;2.20;;;8.90;99.90;;;;;;5037789;28;20225;-58
2023/05/17 04:08:16;;;;;;;7.70;1.60;;;8.90;99.90;;;;;;5055807;28;20259;-58
2023/05/17 04:10:44;;;;;;;5.40;1.70;;;8.90;99.90;;;;;;5037392;28;20305;-59
2023/05/17 04:13:13;;;;;;;7.73;1.83;;;9.10;99.90;;;;;;5035039;28;20230;-58
2023/05/17 04:15:41;;;;;;;8.53;1.70;;;9.00;99.90;;;;;;5017623;28;20275;-58
2023/05/17 04:18:09;;;;;;;12.43;2.10;;;9.00;99.90;;;;;;5035497;28;20252;-59
2023/05/17 04:20:39;;;;;;;13.80;2.40;;;9.00;99.90;;;;;;5039763;28;20220;-58
2023/05/17 04:23:07;;;;;;;10.10;2.13;;;9.00;99.90;;;;;;5055286;28;20220;-59
2023/05/17 04:25:36;;;;;;;11.43;2.53;;;8.90;99.90;;;;;;5037445;28;20240;-59
2023/05/17 04:28:04;;;;;;;13.37;2.73;;;8.90;99.90;;;;;;5037466;28;20232;-59
2023/05/17 04:30:35;;;;;;;10.67;2.40;;;8.80;99.90;;;;;;5036759;28;20236;-57
2023/05/17 04:33:03;;;;;;;12.23;2.83;;;8.90;99.90;;;;;;5055370;28;20224;-59
2023/05/17 04:35:32;;;;;;;14.57;2.90;;;8.90;99.90;;;;;;5036017;28;20244;-58
2023/05/17 04:38:00;;;;;;;11.73;2.43;;;8.90;99.90;;;;;;5040041;28;20817;-59
2023/05/17 04:40:28;;;;;;;15.60;2.90;;;8.90;99.90;;;;;;5056514;28;20644;-59
2023/05/17 04:42:57;;;;;;;13.00;2.63;;;9.00;99.90;;;;;;5057060;28;20229;-59
2023/05/17 04:45:26;;;;;;;12.37;2.50;;;9.00;99.90;;;;;;5039257;28;20231;-58
2023/05/17 04:47:56;;;;;;;11.13;2.70;;;9.10;99.90;;;;;;5037097;28;20224;-59
2023/05/17 04:50:25;;;;;;;9.53;2.40;;;9.10;99.90;;;;;;5053691;28;20228;-59
2023/05/17 04:52:53;;;;;;;14.63;2.77;;;9.10;99.90;;;;;;5041849;28;20219;-59
2023/05/17 04:55:22;;;;;;;10.93;2.50;;;9.20;99.90;;;;;;5055937;28;20216;-58
2023/05/17 04:57:50;;;;;;;16.60;3.17;;;9.20;99.90;;;;;;5074261;28;20702;-58
2023/05/17 05:00:19;;;;;;;11.13;2.43;;;9.20;99.90;;;;;;5053082;28;20250;-58
2023/05/17 05:02:55;;;;;;;11.73;2.20;;;9.20;99.90;;;;;;5035590;28;20223;-59
2023/05/17 05:05:24;;;;;;;9.63;2.17;;;9.20;99.90;;;;;;5034016;28;20220;-58
2023/05/17 05:07:53;;;;;;;11.40;2.30;;;9.30;99.90;;;;;;5025144;28;20359;-59
2023/05/17 05:10:21;;;;;;;14.40;2.47;;;9.40;99.90;;;;;;5030062;28;20229;-57
2023/05/17 05:12:50;;;;;;;11.40;2.27;;;9.50;99.90;;;;;;5040143;28;20229;-58
2023/05/17 05:15:18;;;;;;;11.50;2.50;;;9.60;99.90;;;;;;5033913;28;21056;-55
2023/05/17 05:17:53;;;;;;;10.93;2.60;;;9.60;99.90;;;;;;5036909;28;20784;-57
2023/05/17 05:20:22;;;;;;;8.63;2.00;;;9.50;99.90;;;;;;5036174;28;20221;-56
2023/05/17 05:22:57;;;;;;;8.27;2.47;;;9.50;99.90;;;;;;5032731;28;20282;-57
2023/05/17 05:25:26;;;;;;;14.00;2.30;;;9.50;99.90;;;;;;5028807;28;20727;-59
2023/05/17 05:27:55;;;;;;;8.20;2.43;;;9.50;99.90;;;;;;5030309;28;20232;-58
2023/05/17 05:30:24;;;;;;;13.43;3.00;;;9.40;99.90;;;;;;5030379;28;20713;-56
2023/05/17 05:32:54;;;;;;;8.87;2.17;;;9.20;99.90;;;;;;5032400;28;21089;-58
2023/05/17 05:35:28;;;;;;;9.90;2.20;;;9.20;99.90;;;;;;5027248;28;20224;-57
2023/05/17 05:37:58;;;;;;;13.63;2.33;;;9.20;99.90;;;;;;5030528;28;20230;-59
2023/05/17 05:40:26;;;;;;;13.60;2.33;;;9.10;99.90;;;;;;5030522;28;20853;-57
2023/05/17 05:42:55;;;;;;;13.50;2.30;;;9.10;99.90;;;;;;5031248;28;20277;-56
2023/05/17 05:45:24;;;;;;;15.27;2.97;;;9.20;99.90;;;;;;5037824;28;20231;-55
2023/05/17 05:47:54;;;;;;;12.63;2.70;;;9.20;99.90;;;;;;5032967;28;20233;-59
2023/05/17 05:50:24;;;;;;;14.70;2.30;;;9.30;99.90;;;;;;5030329;28;20224;-57
2023/05/17 05:52:56;;;;;;;9.50;2.27;;;9.40;99.90;;;;;;5031042;28;20270;-54
2023/05/17 05:55:42;;;;;;;9.63;2.37;;;9.40;99.90;;;;;;5027377;28;20224;-58
2023/05/17 05:58:10;;;;;;;10.67;2.23;;;9.40;99.90;;;;;;5032496;28;20232;-57
2023/05/17 06:00:39;;;;;;;11.33;2.43;;;9.50;99.90;;;;;;5032430;28;20715;-58
2023/05/17 06:03:07;;;;;;;11.53;2.23;;;9.50;99.90;;;;;;5040889;28;20231;-59
2023/05/17 06:05:37;;;;;;;12.90;2.77;;;9.40;99.90;;;;;;5037499;28;20349;-53
2023/05/17 06:08:05;;;;;;;13.77;3.00;;;9.40;99.90;;;;;;5038260;28;20740;-55
2023/05/17 06:10:33;;;;;;;13.87;2.30;;;9.40;99.90;;;;;;5039657;28;20316;-58
2023/05/17 06:16:43;;;;;;;9.93;1.73;;;9.30;99.90;;;;;;5037299;28;20270;-57
2023/05/17 06:19:11;;;;;;;13.97;2.17;;;9.40;99.90;;;;;;5040753;28;20670;-55
2023/05/17 06:21:43;;;;;;;14.70;2.37;;;9.40;99.90;;;;;;5040637;28;20220;-58
2023/05/17 06:24:12;;;;;;;10.87;2.03;;;9.40;99.90;;;;;;5033981;28;20233;-57
2023/05/17 06:26:40;;;;;;;11.43;2.57;;;9.50;99.90;;;;;;5039719;28;20315;-57
2023/05/17 06:29:08;;;;;;;10.50;2.10;;;9.50;99.90;;;;;;5040825;28;20266;-56
2023/05/17 06:31:36;;;;;;;10.03;2.10;;;9.60;99.90;;;;;;5039973;28;20592;-58
2023/05/17 06:34:04;;;;;;;6.47;1.77;;;9.70;99.90;;;;;;5040431;28;20319;-57
2023/05/17 06:36:33;;;;;;;8.43;2.33;;;9.80;99.90;;;;;;5036985;28;20252;-57
2023/05/17 06:39:04;;;;;;;12.23;2.17;;;9.90;99.90;;;;;;5040096;28;20762;-57
2023/05/17 06:41:33;;;;;;;9.03;1.90;;;9.80;99.90;;;;;;5038845;28;20615;-55
2023/05/17 06:44:01;;;;;;;9.80;2.30;;;9.80;99.90;;;;;;5039464;28;20592;-57
2023/05/17 06:46:29;;;;;;;7.83;1.87;;;9.70;99.90;;;;;;5036578;28;20332;-54
2023/05/17 06:48:58;;;;;;;13.77;2.37;;;9.60;99.90;;;;;;5038827;28;20240;-58
2023/05/17 06:51:26;;;;;;;10.37;1.73;;;9.60;99.90;;;;;;5039621;28;20220;-55
2023/05/17 06:53:54;;;;;;;7.60;2.17;;;9.60;99.90;;;;;;5039704;28;20222;-57
2023/05/17 06:56:24;;;;;;;8.27;1.70;;;9.80;99.90;;;;;;5036747;28;20231;-56
2023/05/17 06:58:52;;;;;;;13.03;2.30;;;9.80;99.90;;;;;;5039446;28;20690;-55
2023/05/17 07:01:21;;;;;;;11.77;2.87;;;9.80;99.90;;;;;;5039506;28;20311;-57
2023/05/17 07:03:49;;;;;;;10.00;2.20;;;9.90;99.90;;;;;;5041649;28;20236;-55
2023/05/17 07:06:17;;;;;;;11.73;2.07;;;9.90;99.90;;;;;;5034051;28;20331;-56
2023/05/17 07:08:45;;;;;;;13.43;2.47;;;10.10;99.90;;;;;;5039918;28;20267;-55
2023/05/17 07:11:13;;;;;;;13.00;2.60;;;10.30;99.90;;;;;;5041343;28;20323;-57
2023/05/17 07:13:43;;;;;;;9.83;2.03;;;10.40;99.90;;;;;;5041881;28;20736;-56
2023/05/17 07:16:11;;;;;;;10.00;2.23;;;10.50;99.90;;;;;;5038241;28;20259;-56
2023/05/17 07:18:39;;;;;;;8.77;1.93;;;10.50;99.90;;;;;;5043604;28;20225;-54
2023/05/17 07:21:07;;;;;;;17.50;2.17;;;10.60;99.90;;;;;;5044460;28;20689;-59
2023/05/17 07:32:25;;;;;;;8.20;1.80;;;10.30;99.90;;;;;;5042983;28;20266;-57
2023/05/17 07:34:53;;;;;;;12.10;2.20;;;10.20;99.90;;;;;;5044761;28;20732;-58
2023/05/17 07:37:21;;;;;;;9.37;2.07;;;10.10;99.90;;;;;;5043962;28;20692;-56
2023/05/17 07:39:49;;;;;;;9.37;2.17;;;10.10;99.90;;;;;;5043541;28;20317;-58
2023/05/17 07:42:17;;;;;;;12.10;2.23;;;10.20;99.90;;;;;;5045994;28;20225;-58
2023/05/17 07:44:47;;;;;;;9.43;1.73;;;10.50;99.90;;;;;;5041457;28;20229;-55
2023/05/17 07:47:15;;;;;;;9.37;2.07;;;10.80;99.90;;;;;;5046488;28;20696;-58
2023/05/17 07:49:45;;;;;;;8.60;2.17;;;10.80;99.90;;;;;;5040287;28;20229;-58
2023/05/17 07:52:15;;;;;;;13.77;3.03;;;10.60;99.90;;;;;;5045319;28;20233;-57
2023/05/17 07:54:43;;;;;;;8.30;1.90;;;10.50;99.90;;;;;;5041166;28;20230;-55
2023/05/17 07:57:11;;;;;;;8.63;2.10;;;10.30;99.90;;;;;;5044892;28;20240;-57
2023/05/17 07:59:39;;;;;;;12.63;1.97;;;10.00;99.90;;;;;;5042892;28;20224;-58
2023/05/17 08:02:08;;;;;;;10.37;2.30;;;9.90;99.90;;;;;;5046066;28;20238;-59
2023/05/17 08:04:37;;;;;;;8.00;2.00;;;9.90;99.90;;;;;;5044131;28;20232;-52
2023/05/17 08:07:06;;;;;;;13.10;2.17;;;10.00;99.90;;;;;;5043465;28;20234;-56
2023/05/17 08:09:34;;;;;;;8.97;2.10;;;10.10;99.90;;;;;;5043089;28;20208;-57
2023/05/17 08:12:03;;;;;;;8.63;1.70;;;10.10;99.90;;;;;;5045220;28;20217;-54
2023/05/17 08:14:31;;;;;;;9.83;2.07;;;10.00;99.90;;;;;;5042532;28;20208;-58
2023/05/17 08:16:59;;;;;;;8.53;2.00;;;10.00;99.90;;;;;;5044712;28;20239;-55
2023/05/17 08:19:27;;;;;;;10.33;1.90;;;10.50;99.90;;;;;;5044698;28;20201;-58
2023/05/17 08:21:56;;;;;;;7.73;1.50;;;11.10;99.90;;;;;;5043937;28;20200;-58
2023/05/17 08:24:25;;;;;;;9.13;1.70;;;11.80;99.90;;;;;;5043691;28;20202;-58
2023/05/17 08:26:53;;;;;;;6.43;1.67;;;12.30;99.90;;;;;;5032061;28;20221;-58
2023/05/17 08:29:24;;;;;;;3.53;1.30;;;12.00;99.90;;;;;;5043078;28;20201;-59
2023/05/17 08:31:53;;;;;;;6.93;1.90;;;11.30;99.90;;;;;;5043350;28;20311;-55
2023/05/17 08:34:21;;;;;;;5.57;1.33;;;11.10;99.90;;;;;;5043550;28;20205;-56
2023/05/17 08:36:49;;;;;;;6.47;1.87;;;10.80;99.90;;;;;;5041658;28;20666;-57
2023/05/17 08:39:19;;;;;;;8.47;1.77;;;10.90;99.90;;;;;;5044206;28;20210;-57
2023/05/17 08:41:48;;;;;;;5.60;2.10;;;11.50;99.90;;;;;;5046035;28;20211;-58
2023/05/17 08:44:17;;;;;;;10.67;2.00;;;12.30;99.90;;;;;;5046601;28;20593;-58
2023/05/17 08:46:50;;;;;;;8.83;2.10;;;12.20;99.90;;;;;;5044200;28;20210;-58
2023/05/17 08:49:21;;;;;;;9.27;2.53;;;12.10;99.90;;;;;;5047203;28;20226;-57
2023/05/17 08:51:51;;;;;;;8.13;1.90;;;11.50;99.90;;;;;;5045117;28;20227;-58
2023/05/17 08:54:19;;;;;;;4.93;1.67;;;11.00;99.90;;;;;;5045352;28;20687;-55
2023/05/17 08:56:51;;;;;;;7.07;1.77;;;10.80;99.90;;;;;;5034588;28;20215;-58
2023/05/17 08:59:19;;;;;;;9.90;2.17;;;10.50;99.90;;;;;;5042582;28;20682;-58
2023/05/17 09:01:49;;;;;;;7.17;2.07;;;10.50;99.90;;;;;;5042251;28;20328;-56
2023/05/17 09:04:18;;;;;;;8.07;2.40;;;10.50;99.90;;;;;;5034594;28;20212;-55
2023/05/17 09:06:47;;;;;;;7.03;2.13;;;10.60;99.90;;;;;;5039575;28;20206;-58
2023/05/17 09:09:15;;;;;;;12.20;2.03;;;11.00;99.90;;;;;;5043773;28;20286;-56
2023/05/17 09:11:43;;;;;;;9.27;2.33;;;11.60;99.90;;;;;;5042232;28;20278;-57
2023/05/17 09:14:16;;;;;;;8.07;2.20;;;12.30;99.90;;;;;;5043333;28;20860;-55
2023/05/17 09:16:44;;;;;;;10.23;3.10;;;12.60;99.90;;;;;;5040441;28;20211;-53
2023/05/17 09:19:16;;;;;;;12.00;2.63;;;12.90;99.90;;;;;;5043517;28;20690;-57
2023/05/17 09:21:46;;;;;;;7.43;2.07;;;13.00;99.90;;;;;;5041900;28;20236;-56
2023/05/17 09:24:19;;;;;;;9.07;2.10;;;13.20;99.90;;;;;;5041360;28;20685;-58
2023/05/17 09:26:47;;;;;;;7.00;2.20;;;13.50;99.90;;;;;;5038546;28;20230;-56
2023/05/17 09:29:16;;;;;;;12.07;2.10;;;13.10;99.90;;;;;;5030522;28;20241;-58
2023/05/17 09:31:45;;;;;;;7.40;2.10;;;12.40;99.90;;;;;;5040949;28;20730;-57
2023/05/17 09:34:17;;;;;;;10.00;2.20;;;11.80;99.90;;;;;;5041447;28;20231;-53
2023/05/17 09:36:46;;;;;;;7.87;2.33;;;11.50;99.90;;;;;;5034032;28;20235;-57
2023/05/17 09:39:14;;;;;;;10.27;2.53;;;11.60;99.90;;;;;;5041322;28;20892;-56
2023/05/17 09:41:44;;;;;;;11.23;2.20;;;11.70;99.90;;;;;;5036753;28;20878;-57
2023/05/17 09:44:13;;;;;;;7.00;1.97;;;11.90;99.90;;;;;;5038355;28;20301;-57
2023/05/17 09:46:46;;;;;;;11.20;2.33;;;12.20;99.90;;;;;;5032621;28;20255;-57
2023/05/17 09:49:15;;;;;;;7.73;2.03;;;12.40;99.90;;;;;;5036819;28;20276;-55
2023/05/17 09:51:44;;;;;;;10.17;2.10;;;12.40;99.90;;;;;;5035212;28;20223;-57
2023/05/17 09:54:13;;;;;;;8.70;2.10;;;12.30;99.90;;;;;;5040632;28;20241;-55
2023/05/17 09:56:41;;;;;;;7.13;1.90;;;12.20;99.90;;;;;;5039758;28;20309;-56
2023/05/17 09:59:14;;;;;;;7.20;1.73;;;12.20;99.90;;;;;;5039194;28;20779;-58
2023/05/17 10:01:44;;;;;;;7.37;1.70;;;12.90;99.90;;;;;;5040371;28;20720;-56
2023/05/17 10:04:19;;;;;;;5.90;1.73;;;13.80;99.90;;;;;;5041092;28;20314;-55
2023/05/17 10:06:49;;;;;;;7.73;2.17;;;14.00;99.90;;;;;;5036509;28;20314;-52
2023/05/17 10:09:24;;;;;;;8.53;2.60;;;13.40;99.90;;;;;;5039836;28;20690;-58
2023/05/17 10:11:55;;;;;;;7.63;1.60;;;12.90;99.90;;;;;;5039673;28;20230;-55
2023/05/17 10:14:30;;;;;;;8.57;2.00;;;12.70;99.90;;;;;;5039598;28;20253;-56
2023/05/17 10:17:01;;;;;;;8.13;1.80;;;12.70;99.90;;;;;;5039065;28;20718;-57
2023/05/17 10:19:30;;;;;;;5.23;1.63;;;13.40;99.90;;;;;;5040405;28;20318;-57
2023/05/17 10:22:01;;;;;;;7.70;1.63;;;14.10;99.90;;;;;;5041534;28;20229;-54
2023/05/17 10:24:50;;;;;;;7.60;1.87;;;13.70;99.90;;;;;;5040289;28;20690;-56
2023/05/17 10:27:18;;;;;;;8.00;1.87;;;13.20;99.90;;;;;;5041840;28;20644;-58
2023/05/17 10:29:46;;;;;;;5.27;1.47;;;12.80;99.90;;;;;;5041689;28;20223;-57
2023/05/17 10:32:21;;;;;;;9.33;1.60;;;12.40;99.90;;;;;;5041811;28;20824;-58
2023/05/17 10:34:51;;;;;;;7.90;2.20;;;12.40;99.90;;;;;;5039624;28;20564;-56
2023/05/17 10:37:36;;;;;;;7.60;1.77;;;13.10;99.90;;;;;;5040252;28;20223;-57
2023/05/17 10:40:06;;;;;;;7.43;1.60;;;14.00;99.90;;;;;;5041531;28;20239;-55
2023/05/17 10:42:34;;;;;;;6.00;2.07;;;14.30;99.90;;;;;;5041027;28;20230;-56
2023/05/17 10:45:03;;;;;;;7.57;1.57;;;14.10;99.90;;;;;;5036922;28;20595;-53
2023/05/17 10:47:35;;;;;;;6.10;1.77;;;13.80;99.90;;;;;;5038578;28;20239;-56
2023/05/17 10:50:11;;;;;;;7.03;1.93;;;13.30;99.90;;;;;;5038812;28;20228;-56
2023/05/17 10:52:46;;;;;;;4.53;1.50;;;12.90;99.90;;;;;;5037902;28;20233;-55
2023/05/17 10:55:19;;;;;;;6.90;1.43;;;12.60;99.90;;;;;;5039271;28;20226;-56
2023/05/17 10:58:18;;;;;;;5.40;1.40;;;12.60;99.90;;;;;;5039910;28;20250;-57
2023/05/17 11:00:48;;;;;;;7.73;1.83;;;12.70;99.90;;;;;;5038158;28;20893;-54
2023/05/17 11:03:21;;;;;;;6.53;1.73;;;12.70;99.90;;;;;;5039942;28;20770;-55
2023/05/17 11:06:17;;;;;;;6.20;1.57;;;13.20;99.90;;;;;;5037068;28;20281;-58
2023/05/17 11:09:13;;;;;;;3.70;1.60;;;13.80;99.90;;;;;;5038196;28;20238;-57
2023/05/17 11:12:03;;;;;;;5.73;1.50;;;14.40;99.90;;;;;;5041212;28;20616;-56
2023/05/17 11:14:51;;;;;;;6.47;1.70;;;15.30;99.90;;;;;;5040872;28;20728;-58
2023/05/17 11:17:20;;;;;;;7.20;1.60;;;15.20;99.90;;;;;;5041535;28;20713;-57
2023/05/17 11:20:10;;;;;;;7.50;1.87;;;14.40;99.90;;;;;;5041541;28;20231;-58
2023/05/17 11:22:42;;;;;;;6.43;1.87;;;14.10;99.90;;;;;;5041297;28;20220;-57
2023/05/17 11:25:12;;;;;;;9.27;1.83;;;13.50;99.90;;;;;;5039927;28;20223;-54
2023/05/17 11:27:45;;;;;;;9.10;2.27;;;13.10;99.90;;;;;;5040646;28;20376;-58
2023/05/17 11:30:19;;;;;;;6.60;1.70;;;13.20;99.90;;;;;;5041510;28;20274;-56
2023/05/17 11:32:50;;;;;;;5.07;1.40;;;13.30;99.90;;;;;;5041529;28;20234;-58
2023/05/17 11:35:23;;;;;;;4.23;1.40;;;13.40;99.90;;;;;;5039910;28;20307;-57
2023/05/17 11:37:53;;;;;;;3.73;1.50;;;13.40;99.90;;;;;;5040710;28;20236;-55
2023/05/17 11:40:27;;;;;;;4.93;1.43;;;13.20;99.90;;;;;;5041055;28;20298;-56
2023/05/17 11:43:16;;;;;;;5.77;1.30;;;13.10;99.90;;;;;;5041351;28;20231;-55
2023/05/17 11:45:47;;;;;;;4.17;1.23;;;13.50;99.90;;;;;;5039273;28;20231;-57
2023/05/17 11:48:20;;;;;;;4.63;1.40;;;14.50;99.90;;;;;;5041275;28;20225;-58
2023/05/17 11:50:51;;;;;;;5.70;2.27;;;14.80;99.90;;;;;;5040614;28;20748;-59
2023/05/17 11:53:19;;;;;;;5.23;1.30;;;14.50;99.90;;;;;;5042106;28;20224;-57
2023/05/17 11:55:49;;;;;;;8.13;1.37;;;14.00;99.90;;;;;;5038866;28;20346;-56
2023/05/17 11:58:18;;;;;;;8.17;1.57;;;13.50;99.90;;;;;;5037943;28;20648;-55
2023/05/17 12:00:53;;;;;;;5.33;1.43;;;13.40;99.90;;;;;;5038454;28;20268;-56
2023/05/17 12:03:23;;;;;;;6.53;1.63;;;13.30;99.90;;;;;;5027420;28;20237;-57
2023/05/17 12:06:03;;;;;;;5.80;1.90;;;13.10;99.90;;;;;;5029610;28;20253;-55
2023/05/17 12:08:33;;;;;;;6.60;1.80;;;13.00;99.90;;;;;;5027908;28;20246;-58
2023/05/17 12:11:04;;;;;;;6.37;1.90;;;12.70;99.90;;;;;;5042498;28;20691;-58
2023/05/17 12:13:35;;;;;;;9.63;2.27;;;12.70;99.90;;;;;;5042872;28;20287;-56
2023/05/17 12:16:07;;;;;;;7.93;1.87;;;12.90;99.90;;;;;;5040713;28;20245;-56
2023/05/17 12:18:36;;;;;;;5.83;1.70;;;13.20;99.90;;;;;;5042637;28;20232;-55
2023/05/17 12:21:07;;;;;;;8.07;1.93;;;13.40;99.90;;;;;;5044231;28;20231;-57
2023/05/17 12:23:39;;;;;;;7.87;1.90;;;13.50;99.90;;;;;;5044796;28;20322;-58
2023/05/17 12:26:09;;;;;;;9.30;1.93;;;13.30;99.90;;;;;;5043792;28;20231;-57
2023/05/17 12:28:39;;;;;;;6.13;1.90;;;13.00;99.90;;;;;;5044620;28;20233;-58
2023/05/17 12:31:10;;;;;;;8.43;1.80;;;12.50;99.90;;;;;;5044389;28;20242;-58
2023/05/17 12:33:40;;;;;;;7.47;1.60;;;12.50;99.90;;;;;;5044906;28;20241;-56
2023/05/17 12:36:11;;;;;;;4.97;1.47;;;12.50;99.90;;;;;;5043660;28;20227;-58
2023/05/17 12:38:40;;;;;;;7.03;1.90;;;12.50;99.90;;;;;;5043744;28;20720;-58
2023/05/17 12:41:10;;;;;;;6.47;1.53;;;12.60;99.90;;;;;;5044328;28;20234;-58
2023/05/17 12:43:39;;;;;;;4.20;1.30;;;12.50;99.90;;;;;;5043862;28;20259;-56
2023/05/17 12:46:08;;;;;;;3.53;1.23;;;12.40;99.90;;;;;;5043536;28;20234;-57
2023/05/17 12:48:38;;;;;;;5.47;1.87;;;12.60;99.90;;;;;;5044002;28;20233;-57
2023/05/17 12:51:09;;;;;;;4.47;1.40;;;12.60;99.90;;;;;;5042707;28;20262;-57
2023/05/17 12:53:40;;;;;;;3.80;1.10;;;12.70;99.90;;;;;;5041583;28;20239;-58
2023/05/17 12:56:14;;;;;;;4.90;1.37;;;12.90;99.90;;;;;;5039914;28;20653;-59
2023/05/17 12:58:42;;;;;;;6.13;1.50;;;13.20;99.90;;;;;;5041459;28;20650;-57
2023/05/17 13:01:13;;;;;;;5.23;1.50;;;13.50;99.90;;;;;;5041081;28;20234;-57
2023/05/17 13:03:41;;;;;;;6.40;1.77;;;13.50;99.90;;;;;;5041370;28;20774;-57
2023/05/17 13:06:11;;;;;;;5.17;1.60;;;13.10;99.90;;;;;;5039099;28;20273;-57
2023/05/17 13:08:39;;;;;;;7.20;1.80;;;12.90;99.90;;;;;;5043183;28;20765;-58
2023/05/17 13:11:12;;;;;;;7.27;1.83;;;12.90;99.90;;;;;;5043239;28;20238;-57
2023/05/17 13:13:41;;;;;;;7.67;1.83;;;12.90;99.90;;;;;;5038617;28;20233;-58
2023/05/17 13:16:09;;;;;;;6.70;1.50;;;13.00;99.90;;;;;;5041952;28;20321;-59